sensor_id;sensor_type;location;lat;lon;timestamp;pressure;altitude;pressure_sealevel;temperature;humidity
60099;BME280;62818;49.394;8.686;2023-05-08T00:00:37;100663.13;;;15.42;100.00
60099;BME280;62818;49.394;8.686;2023-05-08T00:01:37;100651.25;;;15.51;100.00
60099;BME280;62818;49.394;8.686;2023-05-08T00:02:39;100657.31;;;15.32;100.00
60099;BME280;62818;49.394;8.686;2023-05-08T00:03:41;100655.88;;;15.36;100.00
60099;BME280;62818;49.394;8.686;2023-05-08T00:04:41;100648.72;;;15.43;100.00
60099;BME280;62818;49.394;8.686;2023-05-08T00:05:42;100659.94;;;15.19;100.00
60099;BME280;62818;49.394;8.686;2023-05-08T00:06:42;100659.31;;;15.17;100.00
60099;BME280;62818;49.394;8.686;2023-05-08T00:07:43;100662.97;;;15.16;100.00
60099;BME280;62818;49.394;8.686;2023-05-08T00:08:43;100663.84;;;15.23;100.00
60099;BME280;62818;49.394;8.686;2023-05-08T00:09:44;100658.50;;;15.23;100.00
60099;BME280;62818;49.394;8.686;2023-05-08T00:10:45;100662.22;;;15.22;100.00
60099;BME280;62818;49.394;8.686;2023-05-08T00:11:45;100665.56;;;15.37;100.00
60099;BME280;62818;49.394;8.686;2023-05-08T00:12:46;100664.00;;;15.55;100.00
60099;BME280;62818;49.394;8.686;2023-05-08T00:13:46;100661.78;;;15.25;100.00
60099;BME280;62818;49.394;8.686;2023-05-08T00:14:47;100656.41;;;15.12;100.00
60099;BME280;62818;49.394;8.686;2023-05-08T00:15:47;100659.41;;;15.43;100.00
60099;BME280;62818;49.394;8.686;2023-05-08T00:16:48;100654.47;;;15.40;100.00
60099;BME280;62818;49.394;8.686;2023-05-08T00:17:49;100651.16;;;15.38;100.00
60099;BME280;62818;49.394;8.686;2023-05-08T00:18:49;100656.03;;;15.21;100.00
60099;BME280;62818;49.394;8.686;2023-05-08T00:19:50;100656.94;;;15.41;100.00
60099;BME280;62818;49.394;8.686;2023-05-08T00:20:50;100656.19;;;15.54;100.00
60099;BME280;62818;49.394;8.686;2023-05-08T00:21:51;100653.75;;;15.59;100.00
60099;BME280;62818;49.394;8.686;2023-05-08T00:22:51;100650.47;;;15.57;100.00
60099;BME280;62818;49.394;8.686;2023-05-08T00:23:52;100651.69;;;15.61;100.00
60099;BME280;62818;49.394;8.686;2023-05-08T00:24:52;100659.50;;;15.63;100.00
60099;BME280;62818;49.394;8.686;2023-05-08T00:25:53;100664.53;;;15.38;100.00
60099;BME280;62818;49.394;8.686;2023-05-08T00:26:53;100666.41;;;15.37;100.00
60099;BME280;62818;49.394;8.686;2023-05-08T00:27:53;100669.00;;;15.24;100.00
60099;BME280;62818;49.394;8.686;2023-05-08T00:28:54;100664.31;;;15.33;100.00
60099;BME280;62818;49.394;8.686;2023-05-08T00:29:55;100664.09;;;15.28;100.00
60099;BME280;62818;49.394;8.686;2023-05-08T00:30:58;100670.91;;;15.37;100.00
60099;BME280;62818;49.394;8.686;2023-05-08T00:32:01;100666.13;;;15.26;100.00
60099;BME280;62818;49.394;8.686;2023-05-08T00:33:02;100664.69;;;15.30;100.00
60099;BME280;62818;49.394;8.686;2023-05-08T00:34:02;100657.84;;;15.55;100.00
60099;BME280;62818;49.394;8.686;2023-05-08T00:35:03;100664.88;;;15.69;100.00
60099;BME280;62818;49.394;8.686;2023-05-08T00:36:04;100655.00;;;15.63;100.00
60099;BME280;62818;49.394;8.686;2023-05-08T00:37:05;100651.50;;;15.63;100.00
60099;BME280;62818;49.394;8.686;2023-05-08T00:38:05;100645.56;;;15.74;100.00
60099;BME280;62818;49.394;8.686;2023-05-08T00:39:06;100658.16;;;15.32;100.00
60099;BME280;62818;49.394;8.686;2023-05-08T00:40:08;100658.91;;;15.20;100.00
60099;BME280;62818;49.394;8.686;2023-05-08T00:41:09;100650.03;;;15.13;100.00
60099;BME280;62818;49.394;8.686;2023-05-08T00:42:10;100661.94;;;15.51;100.00
60099;BME280;62818;49.394;8.686;2023-05-08T00:43:10;100658.56;;;15.36;100.00
60099;BME280;62818;49.394;8.686;2023-05-08T00:44:11;100649.59;;;15.50;100.00
60099;BME280;62818;49.394;8.686;2023-05-08T00:45:12;100650.91;;;15.74;100.00
60099;BME280;62818;49.394;8.686;2023-05-08T00:46:12;100649.66;;;15.70;100.00
60099;BME280;62818;49.394;8.686;2023-05-08T00:47:13;100643.09;;;15.72;100.00
60099;BME280;62818;49.394;8.686;2023-05-08T00:48:13;100644.69;;;15.60;100.00
60099;BME280;62818;49.394;8.686;2023-05-08T00:49:14;100651.25;;;15.57;100.00
60099;BME280;62818;49.394;8.686;2023-05-08T00:50:16;100644.53;;;15.68;100.00
60099;BME280;62818;49.394;8.686;2023-05-08T00:51:17;100641.88;;;15.68;100.00
60099;BME280;62818;49.394;8.686;2023-05-08T00:52:18;100649.28;;;15.73;100.00
60099;BME280;62818;49.394;8.686;2023-05-08T00:53:21;100648.44;;;15.72;100.00
60099;BME280;62818;49.394;8.686;2023-05-08T00:54:22;100648.84;;;15.76;100.00
60099;BME280;62818;49.394;8.686;2023-05-08T00:55:23;100650.69;;;15.69;100.00
60099;BME280;62818;49.394;8.686;2023-05-08T00:56:24;100648.66;;;15.77;100.00
60099;BME280;62818;49.394;8.686;2023-05-08T00:57:29;100644.81;;;15.39;100.00
60099;BME280;62818;49.394;8.686;2023-05-08T00:58:34;100653.13;;;15.16;100.00
60099;BME280;62818;49.394;8.686;2023-05-08T00:59:35;100649.59;;;15.50;100.00
60099;BME280;62818;49.394;8.686;2023-05-08T01:00:36;100651.41;;;15.43;100.00
60099;BME280;62818;49.394;8.686;2023-05-08T01:01:40;100654.72;;;15.45;100.00
60099;BME280;62818;49.394;8.686;2023-05-08T01:02:43;100655.28;;;15.40;100.00
60099;BME280;62818;49.394;8.686;2023-05-08T01:03:43;100653.41;;;15.28;100.00
60099;BME280;62818;49.394;8.686;2023-05-08T01:04:44;100657.94;;;15.34;100.00
60099;BME280;62818;49.394;8.686;2023-05-08T01:05:45;100649.59;;;15.50;100.00
60099;BME280;62818;49.394;8.686;2023-05-08T01:06:45;100649.59;;;15.50;100.00
60099;BME280;62818;49.394;8.686;2023-05-08T01:07:46;100640.56;;;15.51;100.00
60099;BME280;62818;49.394;8.686;2023-05-08T01:08:47;100652.41;;;15.35;100.00
60099;BME280;62818;49.394;8.686;2023-05-08T01:09:48;100650.28;;;15.18;100.00
60099;BME280;62818;49.394;8.686;2023-05-08T01:10:58;100659.72;;;15.20;100.00
60099;BME280;62818;49.394;8.686;2023-05-08T01:15:09;100653.78;;;15.66;100.00
60099;BME280;62818;49.394;8.686;2023-05-08T01:16:45;100652.28;;;15.50;100.00
60099;BME280;62818;49.394;8.686;2023-05-08T01:20:03;100665.97;;;15.40;100.00
60099;BME280;62818;49.394;8.686;2023-05-08T01:33:27;100674.16;;;15.32;100.00
60099;BME280;62818;49.394;8.686;2023-05-08T01:34:37;100681.03;;;15.14;100.00
60099;BME280;62818;49.394;8.686;2023-05-08T01:35:49;100678.94;;;15.03;100.00
60099;BME280;62818;49.394;8.686;2023-05-08T01:36:59;100676.44;;;14.95;100.00
60099;BME280;62818;49.394;8.686;2023-05-08T01:38:23;100672.75;;;14.96;100.00
60099;BME280;62818;49.394;8.686;2023-05-08T01:39:46;100683.09;;;15.12;100.00
60099;BME280;62818;49.394;8.686;2023-05-08T01:40:53;100677.81;;;15.25;100.00
60099;BME280;62818;49.394;8.686;2023-05-08T01:42:19;100677.75;;;15.46;100.00
60099;BME280;62818;49.394;8.686;2023-05-08T01:43:31;100676.31;;;15.50;100.00
60099;BME280;62818;49.394;8.686;2023-05-08T01:44:46;100669.41;;;15.28;100.00
60099;BME280;62818;49.394;8.686;2023-05-08T01:45:51;100673.78;;;15.35;100.00
60099;BME280;62818;49.394;8.686;2023-05-08T01:46:55;100677.75;;;15.12;100.00
60099;BME280;62818;49.394;8.686;2023-05-08T01:48:31;100681.44;;;15.04;100.00
60099;BME280;62818;49.394;8.686;2023-05-08T01:49:48;100686.63;;;15.53;100.00
60099;BME280;62818;49.394;8.686;2023-05-08T01:51:03;100680.06;;;15.69;100.00
60099;BME280;62818;49.394;8.686;2023-05-08T01:52:12;100680.06;;;15.62;100.00
60099;BME280;62818;49.394;8.686;2023-05-08T01:53:25;100682.84;;;15.41;100.00
60099;BME280;62818;49.394;8.686;2023-05-08T01:54:34;100679.88;;;15.23;100.00
60099;BME280;62818;49.394;8.686;2023-05-08T01:55:41;100679.47;;;15.26;100.00
60099;BME280;62818;49.394;8.686;2023-05-08T01:56:46;100685.09;;;15.37;100.00
60099;BME280;62818;49.394;8.686;2023-05-08T01:57:52;100683.13;;;15.52;100.00
60099;BME280;62818;49.394;8.686;2023-05-08T01:58:57;100676.19;;;15.24;100.00
60099;BME280;62818;49.394;8.686;2023-05-08T02:00:00;100679.41;;;15.13;100.00
60099;BME280;62818;49.394;8.686;2023-05-08T02:01:03;100678.41;;;15.20;100.00
60099;BME280;62818;49.394;8.686;2023-05-08T02:02:05;100687.53;;;14.98;100.00
60099;BME280;62818;49.394;8.686;2023-05-08T02:03:08;100695.88;;;15.23;100.00
60099;BME280;62818;49.394;8.686;2023-05-08T02:04:14;100684.88;;;15.39;100.00
60099;BME280;62818;49.394;8.686;2023-05-08T02:05:17;100690.94;;;15.61;100.00
60099;BME280;62818;49.394;8.686;2023-05-08T02:06:21;100693.47;;;15.28;100.00
60099;BME280;62818;49.394;8.686;2023-05-08T02:07:24;100692.91;;;15.05;100.00
60099;BME280;62818;49.394;8.686;2023-05-08T02:08:28;100695.19;;;15.42;100.00
60099;BME280;62818;49.394;8.686;2023-05-08T02:09:30;100698.63;;;15.36;100.00
60099;BME280;62818;49.394;8.686;2023-05-08T02:10:31;100694.00;;;15.17;100.00
60099;BME280;62818;49.394;8.686;2023-05-08T02:11:35;100692.50;;;15.01;100.00
60099;BME280;62818;49.394;8.686;2023-05-08T02:12:38;100692.25;;;14.96;100.00
60099;BME280;62818;49.394;8.686;2023-05-08T02:13:43;100701.88;;;14.91;100.00
60099;BME280;62818;49.394;8.686;2023-05-08T02:14:48;100690.56;;;15.23;100.00
60099;BME280;62818;49.394;8.686;2023-05-08T02:15:52;100693.34;;;15.08;100.00
60099;BME280;62818;49.394;8.686;2023-05-08T02:16:56;100691.03;;;15.33;100.00
60099;BME280;62818;49.394;8.686;2023-05-08T02:17:58;100688.34;;;15.33;100.00
60099;BME280;62818;49.394;8.686;2023-05-08T02:19:00;100690.34;;;15.18;100.00
60099;BME280;62818;49.394;8.686;2023-05-08T02:20:04;100684.78;;;15.19;100.00
60099;BME280;62818;49.394;8.686;2023-05-08T02:21:07;100684.88;;;15.39;100.00
60099;BME280;62818;49.394;8.686;2023-05-08T02:22:12;100690.34;;;15.58;100.00
60099;BME280;62818;49.394;8.686;2023-05-08T02:23:17;100681.91;;;15.21;100.00
60099;BME280;62818;49.394;8.686;2023-05-08T02:24:20;100686.31;;;15.01;100.00
60099;BME280;62818;49.394;8.686;2023-05-08T02:25:24;100688.03;;;15.08;100.00
60099;BME280;62818;49.394;8.686;2023-05-08T02:26:25;100685.13;;;15.10;100.00
60099;BME280;62818;49.394;8.686;2023-05-08T02:27:29;100685.19;;;15.16;100.00
60099;BME280;62818;49.394;8.686;2023-05-08T02:28:31;100689.97;;;15.34;100.00
60099;BME280;62818;49.394;8.686;2023-05-08T02:29:33;100688.66;;;15.51;100.00
60099;BME280;62818;49.394;8.686;2023-05-08T02:30:35;100684.38;;;15.22;100.00
60099;BME280;62818;49.394;8.686;2023-05-08T02:31:39;100688.44;;;15.12;100.00
60099;BME280;62818;49.394;8.686;2023-05-08T02:32:46;100683.00;;;15.33;100.00
60099;BME280;62818;49.394;8.686;2023-05-08T02:33:50;100678.69;;;15.32;100.00
60099;BME280;62818;49.394;8.686;2023-05-08T02:34:52;100682.88;;;15.07;100.00
60099;BME280;62818;49.394;8.686;2023-05-08T02:35:55;100684.06;;;14.98;100.00
60099;BME280;62818;49.394;8.686;2023-05-08T02:36:58;100685.00;;;15.18;100.00
60099;BME280;62818;49.394;8.686;2023-05-08T02:38:01;100680.72;;;15.30;100.00
60099;BME280;62818;49.394;8.686;2023-05-08T02:39:04;100689.38;;;15.32;100.00
60099;BME280;62818;49.394;8.686;2023-05-08T02:40:10;100682.31;;;15.18;100.00
60099;BME280;62818;49.394;8.686;2023-05-08T02:41:14;100682.72;;;15.15;100.00
60099;BME280;62818;49.394;8.686;2023-05-08T02:42:18;100682.00;;;15.40;100.00
60099;BME280;62818;49.394;8.686;2023-05-08T02:43:19;100688.97;;;15.35;100.00
60099;BME280;62818;49.394;8.686;2023-05-08T02:44:19;100686.00;;;15.17;100.00
60099;BME280;62818;49.394;8.686;2023-05-08T02:45:23;100685.63;;;15.20;100.00
60099;BME280;62818;49.394;8.686;2023-05-08T02:46:40;100687.72;;;15.31;100.00
60099;BME280;62818;49.394;8.686;2023-05-08T02:51:09;100692.09;;;15.04;100.00
60099;BME280;62818;49.394;8.686;2023-05-08T02:52:26;100694.00;;;15.17;100.00
60099;BME280;62818;49.394;8.686;2023-05-08T02:53:35;100696.22;;;15.07;100.00
60099;BME280;62818;49.394;8.686;2023-05-08T02:55:28;100698.56;;;14.89;100.00
60099;BME280;62818;49.394;8.686;2023-05-08T02:56:39;100698.16;;;14.92;100.00
60099;BME280;62818;49.394;8.686;2023-05-08T02:59:18;100697.06;;;15.14;100.00
60099;BME280;62818;49.394;8.686;2023-05-08T03:00:28;100699.03;;;14.99;100.00
60099;BME280;62818;49.394;8.686;2023-05-08T03:01:47;100699.44;;;14.96;100.00
60099;BME280;62818;49.394;8.686;2023-05-08T03:03:18;100703.91;;;14.89;100.00
60099;BME280;62818;49.394;8.686;2023-05-08T03:04:28;100706.41;;;14.97;100.00
60099;BME280;62818;49.394;8.686;2023-05-08T03:05:35;100697.00;;;15.01;100.00
60099;BME280;62818;49.394;8.686;2023-05-08T03:06:41;100701.16;;;15.10;100.00
60099;BME280;62818;49.394;8.686;2023-05-08T03:07:52;100692.09;;;15.04;100.00
60099;BME280;62818;49.394;8.686;2023-05-08T03:08:58;100695.41;;;15.06;100.00
60099;BME280;62818;49.394;8.686;2023-05-08T03:10:04;100685.06;;;15.31;100.00
60099;BME280;62818;49.394;8.686;2023-05-08T03:11:15;100687.22;;;15.14;100.00
60099;BME280;62818;49.394;8.686;2023-05-08T03:12:23;100692.06;;;14.98;100.00
60099;BME280;62818;49.394;8.686;2023-05-08T03:13:28;100686.88;;;15.24;100.00
60099;BME280;62818;49.394;8.686;2023-05-08T03:14:36;100691.91;;;15.06;100.00
60099;BME280;62818;49.394;8.686;2023-05-08T03:15:46;100690.75;;;15.21;100.00
60099;BME280;62818;49.394;8.686;2023-05-08T03:16:58;100686.94;;;15.37;100.00
60099;BME280;62818;49.394;8.686;2023-05-08T03:18:06;100683.53;;;15.15;100.00
60099;BME280;62818;49.394;8.686;2023-05-08T03:19:18;100686.78;;;15.04;100.00
60099;BME280;62818;49.394;8.686;2023-05-08T03:20:25;100687.06;;;14.88;100.00
60099;BME280;62818;49.394;8.686;2023-05-08T03:21:31;100700.38;;;14.81;100.00
60099;BME280;62818;49.394;8.686;2023-05-08T03:22:34;100691.28;;;15.04;100.00
60099;BME280;62818;49.394;8.686;2023-05-08T03:23:38;100700.44;;;15.29;100.00
60099;BME280;62818;49.394;8.686;2023-05-08T03:24:41;100694.53;;;15.40;100.00
60099;BME280;62818;49.394;8.686;2023-05-08T03:25:45;100688.50;;;15.25;100.00
60099;BME280;62818;49.394;8.686;2023-05-08T03:26:45;100689.31;;;15.19;100.00
60099;BME280;62818;49.394;8.686;2023-05-08T03:27:47;100688.06;;;15.15;100.00
60099;BME280;62818;49.394;8.686;2023-05-08T03:28:49;100684.69;;;15.00;100.00
60099;BME280;62818;49.394;8.686;2023-05-08T03:29:52;100688.69;;;15.17;100.00
60099;BME280;62818;49.394;8.686;2023-05-08T03:30:54;100690.59;;;15.29;100.00
60099;BME280;62818;49.394;8.686;2023-05-08T03:31:57;100693.78;;;15.12;100.00
60099;BME280;62818;49.394;8.686;2023-05-08T03:33:00;100690.06;;;15.06;100.00
60099;BME280;62818;49.394;8.686;2023-05-08T03:34:03;100683.88;;;15.06;100.00
60099;BME280;62818;49.394;8.686;2023-05-08T03:35:05;100689.22;;;15.06;100.00
60099;BME280;62818;49.394;8.686;2023-05-08T03:36:08;100691.09;;;15.12;100.00
60099;BME280;62818;49.394;8.686;2023-05-08T03:37:09;100686.06;;;15.30;100.00
60099;BME280;62818;49.394;8.686;2023-05-08T03:38:11;100680.44;;;15.46;100.00
60099;BME280;62818;49.394;8.686;2023-05-08T03:39:11;100680.91;;;15.22;100.00
60099;BME280;62818;49.394;8.686;2023-05-08T03:40:12;100688.84;;;15.09;100.00
60099;BME280;62818;49.394;8.686;2023-05-08T03:41:13;100683.09;;;15.12;100.00
60099;BME280;62818;49.394;8.686;2023-05-08T03:42:14;100689.97;;;15.34;100.00
60099;BME280;62818;49.394;8.686;2023-05-08T03:43:20;100683.56;;;15.22;100.00
60099;BME280;62818;49.394;8.686;2023-05-08T03:44:22;100693.63;;;14.85;100.00
60099;BME280;62818;49.394;8.686;2023-05-08T03:45:24;100693.19;;;14.82;100.00
60099;BME280;62818;49.394;8.686;2023-05-08T03:46:27;100693.41;;;14.87;100.00
60099;BME280;62818;49.394;8.686;2023-05-08T03:47:30;100701.13;;;15.03;100.00
60099;BME280;62818;49.394;8.686;2023-05-08T03:48:33;100692.91;;;15.05;100.00
60099;BME280;62818;49.394;8.686;2023-05-08T03:49:35;100697.38;;;14.91;100.00
60099;BME280;62818;49.394;8.686;2023-05-08T03:50:37;100690.41;;;14.97;100.00
60099;BME280;62818;49.394;8.686;2023-05-08T03:51:38;100693.88;;;14.91;100.00
60099;BME280;62818;49.394;8.686;2023-05-08T03:52:39;100697.16;;;14.93;100.00
60099;BME280;62818;49.394;8.686;2023-05-08T03:53:40;100689.75;;;14.88;100.00
60099;BME280;62818;49.394;8.686;2023-05-08T03:54:41;100691.81;;;14.93;100.00
60099;BME280;62818;49.394;8.686;2023-05-08T03:55:42;100689.84;;;15.08;100.00
60099;BME280;62818;49.394;8.686;2023-05-08T03:56:42;100694.13;;;14.96;100.00
60099;BME280;62818;49.394;8.686;2023-05-08T03:57:49;100695.81;;;15.10;100.00
60099;BME280;62818;49.394;8.686;2023-05-08T03:59:41;100688.50;;;15.25;100.00
60099;BME280;62818;49.394;8.686;2023-05-08T04:02:18;100695.06;;;14.88;100.00
60099;BME280;62818;49.394;8.686;2023-05-08T04:03:23;100689.94;;;14.87;100.00
60099;BME280;62818;49.394;8.686;2023-05-08T04:04:41;100692.38;;;14.81;100.00
60099;BME280;62818;49.394;8.686;2023-05-08T04:05:56;100695.25;;;14.80;100.00
60099;BME280;62818;49.394;8.686;2023-05-08T04:07:06;100699.44;;;14.96;100.00
60099;BME280;62818;49.394;8.686;2023-05-08T04:09:48;100692.53;;;15.08;100.00
60099;BME280;62818;49.394;8.686;2023-05-08T04:11:11;100696.00;;;15.02;100.00
60099;BME280;62818;49.394;8.686;2023-05-08T04:12:28;100691.19;;;14.91;100.00
60099;BME280;62818;49.394;8.686;2023-05-08T04:13:40;100690.19;;;14.98;100.00
60099;BME280;62818;49.394;8.686;2023-05-08T04:15:06;100694.00;;;15.17;100.00
60099;BME280;62818;49.394;8.686;2023-05-08T04:16:13;100695.38;;;15.00;100.00
60099;BME280;62818;49.394;8.686;2023-05-08T04:17:33;100694.63;;;15.19;100.00
60099;BME280;62818;49.394;8.686;2023-05-08T04:19:01;100695.69;;;15.18;100.00
60099;BME280;62818;49.394;8.686;2023-05-08T04:20:08;100685.69;;;14.99;100.00
60099;BME280;62818;49.394;8.686;2023-05-08T04:21:18;100694.53;;;14.99;100.00
60099;BME280;62818;49.394;8.686;2023-05-08T04:22:24;100697.56;;;15.24;100.00
60099;BME280;62818;49.394;8.686;2023-05-08T04:23:27;100685.50;;;15.41;100.00
60099;BME280;62818;49.394;8.686;2023-05-08T04:24:29;100689.47;;;15.11;100.00
60099;BME280;62818;49.394;8.686;2023-05-08T04:25:35;100691.72;;;15.14;100.00
60099;BME280;62818;49.394;8.686;2023-05-08T04:26:39;100696.78;;;15.36;100.00
60099;BME280;62818;49.394;8.686;2023-05-08T04:27:41;100695.94;;;15.36;100.00
60099;BME280;62818;49.394;8.686;2023-05-08T04:28:43;100695.94;;;15.36;100.00
60099;BME280;62818;49.394;8.686;2023-05-08T04:29:45;100693.03;;;15.24;100.00
60099;BME280;62818;49.394;8.686;2023-05-08T04:30:46;100698.34;;;15.18;100.00
60099;BME280;62818;49.394;8.686;2023-05-08T04:31:47;100704.31;;;15.20;100.00
60099;BME280;62818;49.394;8.686;2023-05-08T04:32:50;100692.25;;;15.30;100.00
60099;BME280;62818;49.394;8.686;2023-05-08T04:33:51;100693.94;;;15.04;100.00
60099;BME280;62818;49.394;8.686;2023-05-08T04:34:52;100692.44;;;14.95;100.00
60099;BME280;62818;49.394;8.686;2023-05-08T04:35:54;100697.53;;;15.17;100.00
60099;BME280;62818;49.394;8.686;2023-05-08T04:36:55;100694.22;;;15.15;100.00
60099;BME280;62818;49.394;8.686;2023-05-08T04:37:57;100693.34;;;15.08;100.00
60099;BME280;62818;49.394;8.686;2023-05-08T04:38:58;100702.78;;;15.04;100.00
60099;BME280;62818;49.394;8.686;2023-05-08T04:40:00;100699.50;;;15.02;100.00
60099;BME280;62818;49.394;8.686;2023-05-08T04:41:01;100696.69;;;15.17;100.00
60099;BME280;62818;49.394;8.686;2023-05-08T04:42:01;100700.53;;;15.42;100.00
60099;BME280;62818;49.394;8.686;2023-05-08T04:43:03;100703.03;;;15.50;100.00
60099;BME280;62818;49.394;8.686;2023-05-08T04:44:04;100701.44;;;15.62;100.00
60099;BME280;62818;49.394;8.686;2023-05-08T04:45:05;100696.03;;;15.49;100.00
60099;BME280;62818;49.394;8.686;2023-05-08T04:46:06;100692.28;;;15.37;100.00
60099;BME280;62818;49.394;8.686;2023-05-08T04:47:07;100693.03;;;15.24;100.00
60099;BME280;62818;49.394;8.686;2023-05-08T04:48:08;100697.00;;;15.01;100.00
60099;BME280;62818;49.394;8.686;2023-05-08T04:49:08;100693.66;;;14.92;100.00
60099;BME280;62818;49.394;8.686;2023-05-08T04:50:09;100699.44;;;14.96;100.00
60099;BME280;62818;49.394;8.686;2023-05-08T04:51:10;100703.75;;;15.31;100.00
60099;BME280;62818;49.394;8.686;2023-05-08T04:52:11;100700.03;;;15.32;100.00
60099;BME280;62818;49.394;8.686;2023-05-08T04:53:11;100702.72;;;15.32;100.00
60099;BME280;62818;49.394;8.686;2023-05-08T04:54:12;100699.88;;;15.40;100.00
60099;BME280;62818;49.394;8.686;2023-05-08T04:55:12;100707.03;;;15.26;100.00
60099;BME280;62818;49.394;8.686;2023-05-08T04:56:12;100705.16;;;14.93;100.00
60099;BME280;62818;49.394;8.686;2023-05-08T04:57:13;100711.34;;;14.93;100.00
60099;BME280;62818;49.394;8.686;2023-05-08T04:58:13;100709.53;;;15.00;100.00
60099;BME280;62818;49.394;8.686;2023-05-08T04:59:14;100714.19;;;14.92;100.00
60099;BME280;62818;49.394;8.686;2023-05-08T05:00:15;100716.19;;;14.83;100.00
60099;BME280;62818;49.394;8.686;2023-05-08T05:01:15;100717.81;;;14.77;100.00
60099;BME280;62818;49.394;8.686;2023-05-08T05:02:16;100720.84;;;14.74;100.00
60099;BME280;62818;49.394;8.686;2023-05-08T05:03:16;100722.81;;;14.94;100.00
60099;BME280;62818;49.394;8.686;2023-05-08T05:04:17;100728.38;;;15.26;100.00
60099;BME280;62818;49.394;8.686;2023-05-08T05:05:18;100729.53;;;15.11;100.00
60099;BME280;62818;49.394;8.686;2023-05-08T05:06:22;100718.56;;;14.99;100.00
60099;BME280;62818;49.394;8.686;2023-05-08T05:07:22;100719.72;;;15.18;100.00
60099;BME280;62818;49.394;8.686;2023-05-08T05:08:23;100711.94;;;15.29;100.00
60099;BME280;62818;49.394;8.686;2023-05-08T05:09:24;100720.97;;;15.22;100.00
60099;BME280;62818;49.394;8.686;2023-05-08T05:10:25;100727.31;;;15.21;100.00
60099;BME280;62818;49.394;8.686;2023-05-08T05:11:25;100726.94;;;15.24;100.00
60099;BME280;62818;49.394;8.686;2023-05-08T05:12:26;100723.78;;;15.14;100.00
60099;BME280;62818;49.394;8.686;2023-05-08T05:13:27;100735.59;;;14.98;100.00
60099;BME280;62818;49.394;8.686;2023-05-08T05:14:27;100733.38;;;15.02;100.00
60099;BME280;62818;49.394;8.686;2023-05-08T05:15:28;100734.88;;;15.11;100.00
60099;BME280;62818;49.394;8.686;2023-05-08T05:16:28;100739.50;;;15.30;100.00
60099;BME280;62818;49.394;8.686;2023-05-08T05:17:29;100742.06;;;15.44;100.00
60099;BME280;62818;49.394;8.686;2023-05-08T05:18:30;100739.09;;;14.99;100.00
60099;BME280;62818;49.394;8.686;2023-05-08T05:19:30;100737.56;;;14.90;100.00
60099;BME280;62818;49.394;8.686;2023-05-08T05:20:31;100740.38;;;15.09;100.00
60099;BME280;62818;49.394;8.686;2023-05-08T05:21:31;100742.25;;;15.09;100.00
60099;BME280;62818;49.394;8.686;2023-05-08T05:22:32;100747.72;;;15.01;100.00
60099;BME280;62818;49.394;8.686;2023-05-08T05:23:33;100742.72;;;15.19;100.00
60099;BME280;62818;49.394;8.686;2023-05-08T05:24:33;100747.19;;;15.12;100.00
60099;BME280;62818;49.394;8.686;2023-05-08T05:25:36;100749.84;;;15.12;100.00
60099;BME280;62818;49.394;8.686;2023-05-08T05:26:37;100742.09;;;15.17;100.00
60099;BME280;62818;49.394;8.686;2023-05-08T05:27:37;100749.72;;;15.20;100.00
60099;BME280;62818;49.394;8.686;2023-05-08T05:28:38;100741.38;;;15.02;100.00
60099;BME280;62818;49.394;8.686;2023-05-08T05:29:38;100753.69;;;15.03;100.00
60099;BME280;62818;49.394;8.686;2023-05-08T05:30:39;100751.44;;;15.00;100.00
60099;BME280;62818;49.394;8.686;2023-05-08T05:31:40;100757.72;;;14.92;100.00
60099;BME280;62818;49.394;8.686;2023-05-08T05:32:41;100755.06;;;15.20;100.00
60099;BME280;62818;49.394;8.686;2023-05-08T05:33:42;100746.03;;;15.27;100.00
60099;BME280;62818;49.394;8.686;2023-05-08T05:34:45;100752.22;;;15.28;100.00
60099;BME280;62818;49.394;8.686;2023-05-08T05:35:46;100753.31;;;15.06;100.00
60099;BME280;62818;49.394;8.686;2023-05-08T05:36:46;100753.59;;;14.90;100.00
60099;BME280;62818;49.394;8.686;2023-05-08T05:37:47;100747.78;;;14.79;100.00
60099;BME280;62818;49.394;8.686;2023-05-08T05:38:47;100754.84;;;14.94;100.00
60099;BME280;62818;49.394;8.686;2023-05-08T05:39:48;100752.88;;;15.02;100.00
60099;BME280;62818;49.394;8.686;2023-05-08T05:40:48;100753.06;;;15.01;100.00
60099;BME280;62818;49.394;8.686;2023-05-08T05:41:49;100756.19;;;15.04;100.00
60099;BME280;62818;49.394;8.686;2023-05-08T05:42:49;100755.59;;;15.09;100.00
60099;BME280;62818;49.394;8.686;2023-05-08T05:43:50;100752.53;;;15.12;100.00
60099;BME280;62818;49.394;8.686;2023-05-08T05:44:50;100754.06;;;15.27;100.00
60099;BME280;62818;49.394;8.686;2023-05-08T05:45:51;100747.66;;;15.22;100.00
60099;BME280;62818;49.394;8.686;2023-05-08T05:46:53;100755.91;;;15.27;100.00
60099;BME280;62818;49.394;8.686;2023-05-08T05:47:53;100754.25;;;15.26;100.00
60099;BME280;62818;49.394;8.686;2023-05-08T05:48:54;100756.22;;;15.11;100.00
60099;BME280;62818;49.394;8.686;2023-05-08T05:49:54;100755.00;;;15.13;100.00
60099;BME280;62818;49.394;8.686;2023-05-08T05:50:56;100763.19;;;15.12;100.00
60099;BME280;62818;49.394;8.686;2023-05-08T05:51:57;100761.84;;;15.29;100.00
60099;BME280;62818;49.394;8.686;2023-05-08T05:52:57;100755.13;;;15.33;100.00
60099;BME280;62818;49.394;8.686;2023-05-08T05:53:57;100758.00;;;15.38;100.00
60099;BME280;62818;49.394;8.686;2023-05-08T05:54:58;100754.88;;;15.28;100.00
60099;BME280;62818;49.394;8.686;2023-05-08T05:55:58;100763.69;;;15.22;100.00
60099;BME280;62818;49.394;8.686;2023-05-08T05:56:59;100759.78;;;15.18;100.00